Bernt Oskar — 3YCU — position and weather

sailwx.info

Track history (hours):
 
Tides and Currents Weather Stations Pressure Air Temp Water Temp Dewpoint Dewpoint Depression Visibility Wind Speed Wind Dir Waves Ship Positions

Bernt Oskar

Last reported at 2018-May-13 11:48 UTC. Time now 2018-May-24 00:11 UTC.
Position N 71°07' E 024°46'.
Warning: this ship's position is 10 days out of date.

Length 36 m.

Type: Fishing. MMSI: 259092000.

Date/timePositionNaut miles runAvg speedWind from/ knotsBaromVisibWave heightAir tempDewpointWater temp
2018-May-13 11:48N 71°07' E 024°46'3 0.1
2018-May-12 10:07N 71°09' E 024°54'6 7.8
2018-May-12 09:21N 71°13' E 025°07'1 1.4
2018-May-12 08:59N 71°13' E 025°06'1 1.0
2018-May-12 08:18N 71°13' E 025°04'2 1.2
2018-May-12 06:29N 71°12' E 024°57'1 0.7
2018-May-12 05:29N 71°12' E 024°55'5 1.6
2018-May-12 02:37N 71°08' E 024°50'8 0.2
2018-May-10 06:39N 70°60' E 024°41'1 4.8
2018-May-10 06:30N 70°59' E 024°41'0 0.3
2018-May-10 06:00N 70°59' E 024°41'0 0.0
2018-May-10 05:30N 70°59' E 024°41'0 0.0
2018-May-10 04:58N 70°59' E 024°41'1 0.4
2018-May-10 03:10N 70°60' E 024°41'0 0.0
2018-May-10 02:59N 70°60' E 024°41'  
Track history (hours):
 
Tides and Currents Weather Stations Pressure Air Temp Water Temp Dewpoint Dewpoint Depression Visibility Wind Speed Wind Dir Waves Ship Positions

Bernt Oskar

Last reported at 2018-May-13 11:48 UTC. Time now 2018-May-24 00:11 UTC.
Position N 71°07' E 024°46'.
Warning: this ship's position is 10 days out of date.

Length 36 m.

Type: Fishing. MMSI: 259092000.

Date/timePositionNaut miles runAvg speedWind from/ knotsBaromVisibWave heightAir tempDewpointWater temp
2018-May-13 11:48N 71°07' E 024°46'3 0.1
2018-May-12 10:07N 71°09' E 024°54'6 7.8
2018-May-12 09:21N 71°13' E 025°07'1 1.4
2018-May-12 08:59N 71°13' E 025°06'1 1.0
2018-May-12 08:18N 71°13' E 025°04'2 1.2
2018-May-12 06:29N 71°12' E 024°57'1 0.7
2018-May-12 05:29N 71°12' E 024°55'5 1.6
2018-May-12 02:37N 71°08' E 024°50'8 0.2
2018-May-10 06:39N 70°60' E 024°41'1 4.8
2018-May-10 06:30N 70°59' E 024°41'0 0.3
2018-May-10 06:00N 70°59' E 024°41'0 0.0
2018-May-10 05:30N 70°59' E 024°41'0 0.0
2018-May-10 04:58N 70°59' E 024°41'1 0.4
2018-May-10 03:10N 70°60' E 024°41'0 0.0
2018-May-10 02:59N 70°60' E 024°41'  

Dump ship's entire track history